Time;durP1;ratioP1;P1;durP2;ratioP2;P2;SDS_P1;SDS_P2;PMS_P1;PMS_P2;Temp;Humidity;BMP_temperature;BMP_pressure;BME280_temperature;BME280_humidity;BME280_pressure;Samples;Min_cycle;Max_cycle;Signal;HPM_P1;HPM_P2
2023/03/08 00:01:29;;;;;;;6.60;6.00;;;0.00;89.60;;;;;;4977206;28;20179;-90
2023/03/08 00:03:56;;;;;;;11.93;5.97;;;0.00;89.80;;;;;;4977227;28;20183;-89
2023/03/08 00:06:23;;;;;;;6.87;6.17;;;0.10;90.10;;;;;;4977424;28;20182;-89
2023/03/08 00:08:49;;;;;;;6.23;5.60;;;0.00;90.30;;;;;;4959880;28;20271;-89
2023/03/08 00:11:15;;;;;;;9.07;6.30;;;0.00;90.30;;;;;;4977031;28;20665;-89
2023/03/08 00:13:41;;;;;;;9.80;6.77;;;0.00;90.30;;;;;;4977412;28;20204;-90
2023/03/08 00:16:10;;;;;;;8.97;6.33;;;0.00;90.40;;;;;;4977106;28;20179;-89
2023/03/08 00:18:36;;;;;;;6.13;5.73;;;-0.10;90.40;;;;;;4976936;28;20657;-89
2023/03/08 00:21:07;;;;;;;9.60;7.80;;;0.00;90.50;;;;;;4976975;28;20175;-89
2023/03/08 00:23:33;;;;;;;6.67;6.13;;;0.00;90.50;;;;;;4977158;28;20191;-89
2023/03/08 00:25:59;;;;;;;6.70;6.10;;;0.00;90.50;;;;;;4977132;28;20180;-90
2023/03/08 00:28:25;;;;;;;6.50;5.90;;;0.00;90.50;;;;;;4976801;28;20196;-89
2023/03/08 00:30:57;;;;;;;9.40;6.37;;;0.00;90.50;;;;;;4959536;28;20175;-89
2023/03/08 00:33:23;;;;;;;6.40;5.80;;;-0.10;90.50;;;;;;4977003;28;20180;-89
2023/03/08 00:36:00;;;;;;;6.57;6.07;;;-0.10;90.60;;;;;;4976648;28;20236;-90
2023/03/08 00:38:26;;;;;;;6.80;6.27;;;-0.10;90.60;;;;;;4976660;28;20195;-90
2023/03/08 00:40:52;;;;;;;7.33;6.63;;;-0.10;90.40;;;;;;4976549;28;20173;-90
2023/03/08 00:43:18;;;;;;;7.90;7.10;;;-0.10;90.40;;;;;;4976681;28;20210;-90
2023/03/08 00:45:44;;;;;;;15.40;6.70;;;-0.20;90.40;;;;;;4959313;28;20590;-89
2023/03/08 00:48:10;;;;;;;6.07;5.57;;;-0.20;90.30;;;;;;4958337;28;20228;-90
2023/03/08 00:50:35;;;;;;;8.43;7.63;;;-0.20;90.40;;;;;;4976654;28;20635;-90
2023/03/08 00:53:01;;;;;;;6.93;6.33;;;-0.30;90.30;;;;;;4976492;28;20531;-90
2023/03/08 00:55:27;;;;;;;8.77;7.97;;;-0.30;90.30;;;;;;4958910;28;20204;-89
2023/03/08 00:57:52;;;;;;;10.30;7.90;;;-0.30;90.50;;;;;;4976140;28;20194;-90
2023/03/08 01:00:18;;;;;;;9.33;8.53;;;-0.40;90.60;;;;;;4976157;28;20183;-89
2023/03/08 01:02:43;;;;;;;9.77;8.97;;;-0.40;90.50;;;;;;4976438;28;20343;-90
2023/03/08 01:05:09;;;;;;;8.00;7.43;;;-0.50;90.60;;;;;;4976231;28;20260;-90
2023/03/08 01:07:35;;;;;;;8.60;6.60;;;-0.40;90.80;;;;;;4958722;28;20580;-90
2023/03/08 01:10:02;;;;;;;7.60;6.83;;;-0.40;90.80;;;;;;4976281;28;20691;-90
2023/03/08 01:12:28;;;;;;;7.07;6.37;;;-0.50;90.80;;;;;;4975972;28;20179;-88
2023/03/08 01:14:54;;;;;;;10.70;8.43;;;-0.50;90.80;;;;;;4975817;28;20205;-89
2023/03/08 01:17:19;;;;;;;8.67;7.77;;;-0.60;90.90;;;;;;4975841;28;20198;-90
2023/03/08 01:19:45;;;;;;;8.23;7.47;;;-0.50;90.90;;;;;;4975757;28;20231;-90
2023/03/08 01:22:10;;;;;;;10.67;7.67;;;-0.50;90.90;;;;;;4975849;28;20226;-89
2023/03/08 01:24:36;;;;;;;7.63;6.93;;;-0.60;91.10;;;;;;4975699;28;20184;-90
2023/03/08 01:27:01;;;;;;;7.30;6.23;;;-0.50;91.10;;;;;;4975587;28;20207;-89
2023/03/08 01:29:27;;;;;;;8.00;6.33;;;-0.50;91.20;;;;;;4975574;28;20179;-90
2023/03/08 01:31:53;;;;;;;6.67;6.07;;;-0.50;91.20;;;;;;4976009;28;20195;-91
2023/03/08 01:34:19;;;;;;;7.57;6.03;;;-0.60;91.20;;;;;;4958293;28;20398;-89
2023/03/08 01:36:44;;;;;;;6.53;6.03;;;-0.60;91.40;;;;;;4975400;28;20199;-89
2023/03/08 01:39:10;;;;;;;9.53;6.70;;;-0.60;91.60;;;;;;4975469;28;20178;-89
2023/03/08 01:41:36;;;;;;;6.83;5.87;;;-0.60;91.70;;;;;;4958081;28;20190;-89
2023/03/08 01:44:02;;;;;;;7.03;6.53;;;-0.60;91.80;;;;;;4958293;28;20186;-89
2023/03/08 01:46:32;;;;;;;7.70;7.07;;;-0.60;91.90;;;;;;4975251;28;20181;-88
2023/03/08 01:49:04;;;;;;;7.83;7.03;;;-0.60;92.00;;;;;;4975914;28;20505;-89
2023/03/08 01:51:41;;;;;;;6.50;6.00;;;-0.50;92.10;;;;;;4957822;28;20239;-89
2023/03/08 01:54:18;;;;;;;6.90;6.40;;;-0.50;92.20;;;;;;4975013;28;20214;-89
2023/03/08 01:56:46;;;;;;;7.00;6.40;;;-0.50;92.20;;;;;;4957801;28;20206;-89
2023/03/08 01:59:13;;;;;;;10.13;7.53;;;-0.50;92.20;;;;;;4958403;28;20230;-89
2023/03/08 02:01:39;;;;;;;8.67;7.83;;;-0.50;92.30;;;;;;4957845;28;20533;-89
2023/03/08 02:04:05;;;;;;;8.90;8.00;;;-0.40;92.30;;;;;;4957834;28;20626;-89
2023/03/08 02:06:31;;;;;;;8.90;8.00;;;-0.50;92.40;;;;;;4958441;28;20553;-89
2023/03/08 02:09:02;;;;;;;9.83;8.10;;;-0.50;92.40;;;;;;4975046;28;20166;-89
2023/03/08 02:11:27;;;;;;;9.30;8.50;;;-0.40;92.40;;;;;;4957733;28;20601;-89
2023/03/08 02:13:54;;;;;;;9.80;9.00;;;-0.40;92.50;;;;;;4957419;28;20202;-89
2023/03/08 02:16:20;;;;;;;9.87;8.80;;;-0.40;92.50;;;;;;4974859;28;20261;-89
2023/03/08 02:18:55;;;;;;;8.33;7.70;;;-0.40;92.50;;;;;;4957832;28;20277;-89
2023/03/08 02:21:21;;;;;;;8.73;8.13;;;-0.50;92.50;;;;;;4957453;28;20181;-89
2023/03/08 02:23:47;;;;;;;8.93;8.03;;;-0.50;92.60;;;;;;4957901;28;20559;-89
2023/03/08 02:26:13;;;;;;;10.43;8.73;;;-0.50;92.60;;;;;;4974693;28;20183;-89
2023/03/08 02:28:39;;;;;;;11.27;9.47;;;-0.50;92.70;;;;;;4957341;28;20288;-89
2023/03/08 02:31:05;;;;;;;9.37;8.47;;;-0.50;92.80;;;;;;4974853;28;20182;-89
2023/03/08 02:33:32;;;;;;;10.77;9.73;;;-0.40;92.80;;;;;;4957291;28;20178;-89
2023/03/08 02:35:59;;;;;;;12.90;10.77;;;-0.40;92.90;;;;;;4957334;28;20261;-89
2023/03/08 02:38:25;;;;;;;15.43;10.50;;;-0.40;92.90;;;;;;4957686;28;20198;-89
2023/03/08 02:40:51;;;;;;;10.90;9.90;;;-0.30;92.90;;;;;;4958145;28;20649;-89
2023/03/08 02:43:18;;;;;;;11.20;10.27;;;-0.30;92.90;;;;;;4957201;28;20258;-89
2023/03/08 02:45:44;;;;;;;10.10;9.33;;;-0.40;93.00;;;;;;4957584;28;20245;-89
2023/03/08 02:48:10;;;;;;;13.43;10.30;;;-0.30;93.00;;;;;;4957868;28;20678;-89
2023/03/08 02:50:35;;;;;;;13.27;11.97;;;-0.30;93.10;;;;;;4957172;28;20262;-89
2023/03/08 02:53:02;;;;;;;10.73;9.73;;;-0.20;93.10;;;;;;4974356;28;20190;-89
2023/03/08 02:55:27;;;;;;;13.80;12.47;;;-0.20;93.00;;;;;;4974393;28;20703;-89
2023/03/08 02:57:53;;;;;;;14.27;11.77;;;-0.20;93.00;;;;;;4974322;28;20194;-89
2023/03/08 03:00:19;;;;;;;12.50;11.50;;;-0.30;93.00;;;;;;4974437;28;20175;-89
2023/03/08 03:02:44;;;;;;;13.43;12.10;;;-0.20;93.00;;;;;;4974269;28;20183;-89
2023/03/08 03:05:11;;;;;;;13.10;11.83;;;-0.20;93.00;;;;;;4974537;28;20212;-89
2023/03/08 03:07:38;;;;;;;12.13;11.03;;;-0.20;93.00;;;;;;4957170;28;20207;-89
2023/03/08 03:10:05;;;;;;;12.30;11.40;;;-0.20;93.00;;;;;;4956889;28;20343;-88
2023/03/08 03:12:30;;;;;;;15.17;12.47;;;-0.30;93.00;;;;;;4960781;28;20207;-89
2023/03/08 03:14:56;;;;;;;10.93;9.83;;;-0.30;93.00;;;;;;4978514;28;20238;-89
2023/03/08 03:17:22;;;;;;;11.87;10.83;;;-0.40;93.10;;;;;;4978032;28;20195;-89
2023/03/08 03:19:47;;;;;;;13.20;11.90;;;-0.40;93.10;;;;;;4960760;28;20174;-89
2023/03/08 03:22:13;;;;;;;11.87;10.67;;;-0.50;93.10;;;;;;4960734;28;20175;-89
2023/03/08 03:24:39;;;;;;;14.10;12.93;;;-0.40;93.20;;;;;;4961696;28;20278;-89
2023/03/08 03:27:04;;;;;;;12.50;11.43;;;-0.50;93.20;;;;;;4960631;28;20297;-89
2023/03/08 03:29:30;;;;;;;13.40;12.17;;;-0.50;93.20;;;;;;4960474;28;20182;-89
2023/03/08 03:31:55;;;;;;;14.87;13.20;;;-0.40;93.30;;;;;;4977848;28;20613;-89
2023/03/08 03:34:21;;;;;;;12.90;11.67;;;-0.30;93.20;;;;;;4978261;28;20273;-89
2023/03/08 03:36:47;;;;;;;12.77;11.53;;;-0.30;93.20;;;;;;4960553;28;20681;-89
2023/03/08 03:39:12;;;;;;;13.20;11.47;;;-0.30;93.20;;;;;;4960440;28;20265;-89
2023/03/08 03:41:38;;;;;;;15.17;13.33;;;-0.30;93.20;;;;;;4977947;28;20675;-89
2023/03/08 03:44:03;;;;;;;17.37;15.53;;;-0.30;93.20;;;;;;4977896;28;20663;-89
2023/03/08 03:46:29;;;;;;;16.77;15.07;;;-0.30;93.20;;;;;;4960260;28;20183;-89
2023/03/08 03:48:55;;;;;;;18.63;16.93;;;-0.30;93.20;;;;;;4977572;28;20177;-89
2023/03/08 03:51:21;;;;;;;17.23;15.67;;;-0.20;93.30;;;;;;4977504;28;20183;-89
2023/03/08 03:53:47;;;;;;;15.83;14.43;;;-0.20;93.30;;;;;;4960139;28;20202;-89
2023/03/08 03:56:16;;;;;;;16.47;14.80;;;-0.10;93.40;;;;;;4960881;28;20179;-89
2023/03/08 03:58:42;;;;;;;15.37;14.07;;;-0.10;93.40;;;;;;4977377;28;20191;-89
2023/03/08 04:01:20;;;;;;;15.70;14.20;;;-0.10;93.40;;;;;;4977333;28;20226;-89
2023/03/08 04:03:46;;;;;;;16.03;14.53;;;0.00;93.40;;;;;;4960747;28;20315;-89
2023/03/08 04:06:25;;;;;;;15.83;13.97;;;0.00;93.30;;;;;;4977072;28;20226;-89
2023/03/08 04:08:56;;;;;;;15.33;13.87;;;0.00;93.30;;;;;;4977262;28;20238;-90
2023/03/08 04:11:26;;;;;;;14.87;12.87;;;0.00;93.30;;;;;;4959784;28;20538;-89
2023/03/08 04:13:52;;;;;;;14.30;13.07;;;-0.10;93.10;;;;;;4977591;28;20195;-89
2023/03/08 04:16:21;;;;;;;15.87;14.23;;;-0.10;93.10;;;;;;4977041;28;20544;-89
2023/03/08 04:18:47;;;;;;;14.77;13.57;;;-0.10;93.00;;;;;;4960324;28;20196;-89
2023/03/08 04:21:13;;;;;;;14.30;13.20;;;-0.10;93.00;;;;;;4977026;28;20167;-89
2023/03/08 04:23:39;;;;;;;15.63;14.17;;;-0.10;93.00;;;;;;4975678;28;20171;-89
2023/03/08 04:26:06;;;;;;;17.20;15.63;;;-0.10;92.90;;;;;;4976841;28;20703;-89
2023/03/08 04:28:32;;;;;;;17.00;15.57;;;-0.10;92.90;;;;;;4959761;28;20200;-89
2023/03/08 04:30:59;;;;;;;17.20;15.70;;;-0.20;92.90;;;;;;4959948;28;20175;-89
2023/03/08 04:33:25;;;;;;;16.20;14.87;;;-0.20;92.90;;;;;;4976963;28;20201;-89
2023/03/08 04:35:50;;;;;;;16.87;15.47;;;-0.20;92.80;;;;;;4976881;28;20548;-89
2023/03/08 04:38:16;;;;;;;16.57;15.17;;;-0.20;92.80;;;;;;4959836;28;20198;-89
2023/03/08 04:41:10;;;;;;;15.20;13.87;;;-0.20;92.70;;;;;;4960280;28;20179;-89
2023/03/08 04:43:37;;;;;;;18.50;16.63;;;-0.20;92.70;;;;;;4976947;28;20151;-89
2023/03/08 04:46:03;;;;;;;17.33;15.60;;;-0.30;92.60;;;;;;4959427;28;20581;-89
2023/03/08 04:48:29;;;;;;;17.77;16.33;;;-0.30;92.60;;;;;;4976520;28;20281;-89
2023/03/08 04:50:56;;;;;;;14.13;13.03;;;-0.20;92.60;;;;;;4976493;28;20214;-89
2023/03/08 04:53:23;;;;;;;18.73;14.70;;;-0.30;92.60;;;;;;4976570;28;20194;-89
2023/03/08 04:55:49;;;;;;;17.47;15.97;;;-0.30;92.60;;;;;;4976299;28;20201;-89
2023/03/08 04:58:15;;;;;;;16.67;15.47;;;-0.30;92.60;;;;;;4958893;28;20221;-89
2023/03/08 05:00:41;;;;;;;15.50;14.20;;;-0.20;92.60;;;;;;4976338;28;20646;-89
2023/03/08 05:03:07;;;;;;;14.70;13.70;;;-0.20;92.60;;;;;;4958815;28;20179;-89
2023/03/08 05:05:32;;;;;;;15.63;14.53;;;-0.20;92.60;;;;;;4976155;28;20558;-89
2023/03/08 05:08:07;;;;;;;15.50;14.33;;;-0.30;92.60;;;;;;4958717;28;20573;-89
2023/03/08 05:10:32;;;;;;;15.60;14.27;;;-0.20;92.70;;;;;;4976125;28;20166;-89
2023/03/08 05:12:58;;;;;;;16.03;14.53;;;-0.20;92.60;;;;;;4976024;28;20180;-90
2023/03/08 05:15:23;;;;;;;16.43;15.03;;;-0.20;92.60;;;;;;4976072;28;20267;-89
2023/03/08 05:17:50;;;;;;;15.53;14.43;;;-0.20;92.60;;;;;;4958533;28;20207;-90
2023/03/08 05:20:16;;;;;;;15.87;14.73;;;-0.20;92.70;;;;;;4975914;28;20230;-89
2023/03/08 05:22:42;;;;;;;16.17;14.77;;;-0.20;92.60;;;;;;4958571;28;20190;-89
2023/03/08 05:25:09;;;;;;;15.07;13.87;;;-0.20;92.70;;;;;;4975742;28;20184;-89
2023/03/08 05:27:35;;;;;;;16.27;14.87;;;-0.20;92.60;;;;;;4975668;28;20257;-89
2023/03/08 05:30:01;;;;;;;15.27;14.00;;;-0.20;92.60;;;;;;4975591;28;20179;-89
2023/03/08 05:32:26;;;;;;;16.77;15.57;;;-0.20;92.60;;;;;;4975567;28;20183;-89
2023/03/08 05:34:52;;;;;;;17.40;16.10;;;-0.30;92.70;;;;;;4957939;28;20216;-89
2023/03/08 05:37:18;;;;;;;16.37;15.07;;;-0.30;92.80;;;;;;4958118;28;20624;-89
2023/03/08 05:39:44;;;;;;;16.33;15.03;;;-0.30;92.70;;;;;;4958199;28;20183;-89
2023/03/08 05:42:11;;;;;;;16.67;15.23;;;-0.40;92.70;;;;;;4975391;28;20211;-89
2023/03/08 05:44:37;;;;;;;16.60;15.20;;;-0.40;92.70;;;;;;4975494;28;20171;-89
2023/03/08 05:47:03;;;;;;;16.53;15.13;;;-0.40;92.90;;;;;;4975928;28;20191;-89
2023/03/08 05:49:28;;;;;;;17.07;15.47;;;-0.30;93.00;;;;;;4958217;28;20641;-89
2023/03/08 05:51:54;;;;;;;15.90;14.83;;;-0.30;93.00;;;;;;4975232;28;20182;-89
2023/03/08 05:54:20;;;;;;;17.37;16.07;;;-0.30;93.00;;;;;;4975539;28;20538;-87
2023/03/08 05:56:45;;;;;;;19.23;17.40;;;-0.30;93.00;;;;;;4958211;28;20226;-89
2023/03/08 05:59:11;;;;;;;19.87;18.10;;;-0.30;93.00;;;;;;4975148;28;20207;-89
2023/03/08 06:01:36;;;;;;;16.57;15.40;;;-0.30;93.10;;;;;;4957847;28;20182;-89
2023/03/08 06:04:02;;;;;;;19.67;17.97;;;-0.30;93.10;;;;;;4975145;28;20186;-89
2023/03/08 06:06:27;;;;;;;20.27;17.90;;;-0.30;93.10;;;;;;4957530;28;20180;-89
2023/03/08 06:08:55;;;;;;;19.37;17.87;;;-0.30;93.10;;;;;;4975059;28;20178;-89
2023/03/08 06:11:21;;;;;;;25.23;18.07;;;-0.20;93.10;;;;;;4975011;28;20174;-90
2023/03/08 06:13:46;;;;;;;19.17;17.50;;;-0.10;93.10;;;;;;4975086;28;20173;-90
2023/03/08 06:16:12;;;;;;;18.33;17.00;;;-0.20;93.00;;;;;;4957628;28;20182;-89
2023/03/08 06:18:39;;;;;;;18.13;16.57;;;-0.30;92.90;;;;;;4974804;28;20199;-89
2023/03/08 06:21:14;;;;;;;18.70;17.30;;;-0.20;92.90;;;;;;4974854;28;20552;-90
2023/03/08 06:23:39;;;;;;;18.43;16.83;;;-0.20;92.90;;;;;;4974928;28;20670;-89
2023/03/08 06:26:06;;;;;;;17.37;16.07;;;-0.20;92.80;;;;;;4974694;28;20207;-89
2023/03/08 06:28:32;;;;;;;18.57;16.63;;;-0.20;92.70;;;;;;4957469;28;20255;-90
2023/03/08 06:30:58;;;;;;;18.33;16.77;;;-0.20;92.60;;;;;;4974658;28;20183;-90
2023/03/08 06:33:27;;;;;;;18.87;17.27;;;-0.20;92.60;;;;;;4974638;28;20235;-89
2023/03/08 06:36:08;;;;;;;17.53;15.97;;;-0.20;92.60;;;;;;4974514;28;20203;-90
2023/03/08 06:38:35;;;;;;;18.33;16.77;;;-0.10;92.60;;;;;;4974533;28;20190;-89
2023/03/08 06:41:02;;;;;;;17.63;16.27;;;-0.10;92.60;;;;;;4974490;28;20172;-89
2023/03/08 06:43:28;;;;;;;18.37;16.90;;;-0.10;92.50;;;;;;4974498;28;20163;-90
2023/03/08 06:45:54;;;;;;;18.13;16.40;;;-0.10;92.50;;;;;;4974063;28;20189;-89
2023/03/08 06:48:19;;;;;;;18.00;16.60;;;-0.10;92.50;;;;;;4974422;28;20209;-90
2023/03/08 06:50:45;;;;;;;18.43;17.03;;;-0.10;92.40;;;;;;4974488;28;20234;-89
2023/03/08 06:53:11;;;;;;;19.13;16.90;;;-0.10;92.40;;;;;;4974651;28;20195;-89
2023/03/08 06:55:38;;;;;;;19.07;17.47;;;-0.10;92.40;;;;;;4974326;28;20625;-89
2023/03/08 06:58:04;;;;;;;19.07;17.57;;;-0.10;92.40;;;;;;4974327;28;20239;-89
2023/03/08 07:00:30;;;;;;;19.80;18.17;;;-0.10;92.40;;;;;;4974375;28;20726;-90
2023/03/08 07:02:56;;;;;;;22.40;20.03;;;-0.10;92.40;;;;;;4957050;28;20181;-89
2023/03/08 07:05:22;;;;;;;18.93;17.43;;;0.00;92.40;;;;;;4974473;28;20208;-90
2023/03/08 07:07:48;;;;;;;19.27;17.67;;;0.00;92.30;;;;;;4974310;28;20198;-90
2023/03/08 07:10:15;;;;;;;18.70;17.20;;;0.00;92.30;;;;;;4974302;28;20176;-90
2023/03/08 07:12:42;;;;;;;18.10;16.77;;;0.00;92.30;;;;;;4974326;28;20518;-89
2023/03/08 07:15:15;;;;;;;19.37;17.57;;;0.00;92.10;;;;;;4974193;28;20190;-89
2023/03/08 07:17:42;;;;;;;18.90;17.37;;;0.00;92.10;;;;;;4974188;28;20187;-90
2023/03/08 07:20:12;;;;;;;19.73;17.93;;;0.00;92.00;;;;;;4974187;28;20173;-90
2023/03/08 07:22:40;;;;;;;18.57;16.93;;;0.00;92.00;;;;;;4974794;28;20170;-90
2023/03/08 07:25:07;;;;;;;19.10;17.23;;;0.00;92.10;;;;;;4974096;28;20185;-90
2023/03/08 07:27:32;;;;;;;18.70;16.73;;;0.00;92.00;;;;;;4956811;28;20198;-89
2023/03/08 07:29:58;;;;;;;19.13;17.27;;;0.00;92.00;;;;;;4956818;28;20191;-90
2023/03/08 07:32:27;;;;;;;20.73;18.73;;;0.00;92.00;;;;;;4974044;28;20258;-89
2023/03/08 07:34:53;;;;;;;20.80;19.00;;;0.10;92.00;;;;;;4974298;28;20736;-89
2023/03/08 07:37:19;;;;;;;18.83;17.27;;;0.10;92.00;;;;;;4974005;28;20195;-90
2023/03/08 07:39:44;;;;;;;18.67;16.83;;;0.20;92.10;;;;;;4974019;28;20697;-90
2023/03/08 07:42:10;;;;;;;20.23;18.13;;;0.10;92.00;;;;;;4973950;28;20174;-90
2023/03/08 07:44:36;;;;;;;18.20;16.40;;;0.10;92.00;;;;;;4973939;28;20187;-90
2023/03/08 07:47:04;;;;;;;20.37;18.63;;;0.10;91.90;;;;;;4973845;28;20198;-90
2023/03/08 07:49:29;;;;;;;20.30;18.30;;;0.10;92.00;;;;;;4956532;28;20626;-89
2023/03/08 07:51:55;;;;;;;19.80;18.00;;;0.10;92.00;;;;;;4973809;28;20188;-89
2023/03/08 07:54:21;;;;;;;20.07;18.07;;;0.10;91.90;;;;;;4973934;28;20199;-90
2023/03/08 07:56:46;;;;;;;22.17;20.37;;;0.20;92.00;;;;;;4974655;28;20197;-89
2023/03/08 07:59:12;;;;;;;24.53;20.30;;;0.20;92.00;;;;;;4977391;28;20652;-89
2023/03/08 08:01:38;;;;;;;23.73;19.47;;;0.20;92.00;;;;;;4977282;28;20180;-89
2023/03/08 08:04:04;;;;;;;21.77;19.67;;;0.20;92.00;;;;;;4960031;28;20187;-89
2023/03/08 08:06:29;;;;;;;20.10;18.20;;;0.10;92.00;;;;;;4977232;28;20179;-90
2023/03/08 08:08:56;;;;;;;21.80;19.73;;;0.10;92.00;;;;;;4977283;28;20208;-90
2023/03/08 08:11:22;;;;;;;20.93;19.13;;;0.10;92.00;;;;;;4977517;28;20211;-89
2023/03/08 08:13:48;;;;;;;20.93;19.03;;;0.20;92.00;;;;;;4977290;28;20591;-90
2023/03/08 08:16:15;;;;;;;22.73;19.87;;;0.10;92.00;;;;;;4977110;28;20182;-89
2023/03/08 08:18:41;;;;;;;21.90;20.00;;;0.10;91.90;;;;;;4976974;28;20250;-89
2023/03/08 08:21:13;;;;;;;21.77;19.70;;;0.10;91.90;;;;;;4976995;28;20198;-90
2023/03/08 08:23:40;;;;;;;20.67;19.00;;;0.10;92.00;;;;;;4977003;28;20156;-89
2023/03/08 08:26:08;;;;;;;20.00;18.17;;;0.00;92.00;;;;;;4976908;28;20181;-89
2023/03/08 08:28:35;;;;;;;21.07;19.00;;;0.00;92.10;;;;;;4977270;28;20199;-89
2023/03/08 08:31:04;;;;;;;20.90;19.00;;;0.00;92.10;;;;;;4976708;28;20186;-89
2023/03/08 08:33:31;;;;;;;21.53;19.57;;;0.10;92.10;;;;;;4976740;28;20253;-89
2023/03/08 08:35:57;;;;;;;21.07;18.87;;;0.10;92.10;;;;;;4959401;28;20198;-89
2023/03/08 08:38:23;;;;;;;19.47;17.63;;;0.10;92.10;;;;;;4976618;28;20200;-89
2023/03/08 08:40:49;;;;;;;19.17;17.53;;;0.20;92.10;;;;;;4976866;28;20168;-90
2023/03/08 08:43:15;;;;;;;18.43;16.83;;;0.30;92.10;;;;;;4976770;28;20594;-89
2023/03/08 08:45:47;;;;;;;19.17;17.30;;;0.20;91.90;;;;;;4976522;28;20175;-90
2023/03/08 08:48:13;;;;;;;18.23;16.37;;;0.20;91.80;;;;;;4976453;28;20199;-89
2023/03/08 08:50:40;;;;;;;19.03;17.50;;;0.20;91.70;;;;;;4976729;28;20175;-90
2023/03/08 08:53:07;;;;;;;19.67;17.87;;;0.20;91.50;;;;;;4976615;28;20219;-89
2023/03/08 08:55:33;;;;;;;16.63;14.93;;;0.30;91.40;;;;;;4976293;28;20202;-89
2023/03/08 08:57:59;;;;;;;19.50;17.47;;;0.30;91.30;;;;;;4976285;28;20186;-89
2023/03/08 09:00:25;;;;;;;18.57;16.10;;;0.30;91.30;;;;;;4976199;28;20529;-89
2023/03/08 09:02:50;;;;;;;23.63;18.13;;;0.30;91.20;;;;;;4976226;28;20181;-89
2023/03/08 09:05:16;;;;;;;20.60;18.53;;;0.30;91.20;;;;;;4958847;28;20180;-90
2023/03/08 09:07:41;;;;;;;19.70;18.10;;;0.40;91.30;;;;;;4975916;28;20197;-89
2023/03/08 09:10:08;;;;;;;21.33;19.03;;;0.50;91.30;;;;;;4958293;28;20201;-89
2023/03/08 09:12:34;;;;;;;21.07;18.93;;;0.50;91.20;;;;;;4959384;28;20190;-89
2023/03/08 09:15:00;;;;;;;21.40;19.37;;;0.50;91.20;;;;;;4976178;28;20639;-89
2023/03/08 09:17:25;;;;;;;21.40;19.50;;;0.50;91.10;;;;;;4976056;28;20198;-89
2023/03/08 09:19:51;;;;;;;22.03;20.07;;;0.50;91.00;;;;;;4975943;28;20257;-89
2023/03/08 09:22:17;;;;;;;21.53;19.23;;;0.40;90.80;;;;;;4975775;28;20710;-89
2023/03/08 09:24:44;;;;;;;21.03;18.67;;;0.40;90.80;;;;;;4976118;28;20172;-89
2023/03/08 09:27:10;;;;;;;18.90;17.30;;;0.50;90.80;;;;;;4959150;28;20213;-87
2023/03/08 09:29:37;;;;;;;18.93;17.10;;;0.50;90.60;;;;;;4959691;28;20601;-90
2023/03/08 09:32:03;;;;;;;20.20;17.77;;;0.50;90.80;;;;;;4975754;28;20180;-88
2023/03/08 09:34:29;;;;;;;19.20;17.30;;;0.50;90.80;;;;;;4958245;28;20303;-89
2023/03/08 09:36:54;;;;;;;19.33;17.53;;;0.50;90.80;;;;;;4975612;28;20278;-88
2023/03/08 09:39:20;;;;;;;18.67;16.60;;;0.60;90.80;;;;;;4975716;28;20708;-89
2023/03/08 09:41:58;;;;;;;20.63;18.57;;;0.50;90.50;;;;;;4975566;28;20177;-88
2023/03/08 09:44:44;;;;;;;19.63;16.83;;;0.60;90.60;;;;;;4958592;28;20635;-87
2023/03/08 09:47:10;;;;;;;19.50;17.47;;;0.60;90.60;;;;;;4958540;28;20341;-88
2023/03/08 09:49:37;;;;;;;18.87;16.97;;;0.70;90.50;;;;;;4958390;28;20206;-89
2023/03/08 09:52:05;;;;;;;22.70;17.90;;;0.70;90.60;;;;;;4958280;28;20685;-88
2023/03/08 09:54:33;;;;;;;18.67;16.60;;;0.70;90.50;;;;;;4957942;28;20288;-89
2023/03/08 09:57:01;;;;;;;19.57;17.57;;;0.80;90.50;;;;;;4975206;28;20692;-89
2023/03/08 09:59:33;;;;;;;26.07;19.57;;;0.70;90.20;;;;;;4975396;28;20181;-89
2023/03/08 10:02:02;;;;;;;20.23;18.13;;;0.80;90.30;;;;;;4957904;28;20670;-89
2023/03/08 10:04:34;;;;;;;24.50;20.27;;;0.90;90.20;;;;;;4975096;28;20177;-89
2023/03/08 10:07:09;;;;;;;23.33;20.93;;;1.00;90.20;;;;;;4957977;28;20288;-89
2023/03/08 10:09:43;;;;;;;23.80;21.33;;;1.10;89.90;;;;;;4957904;28;20181;-89
2023/03/08 10:12:31;;;;;;;26.97;22.43;;;1.10;89.80;;;;;;4975507;28;20169;-88
2023/03/08 10:15:08;;;;;;;27.13;24.17;;;1.20;89.70;;;;;;4975150;28;20202;-88
2023/03/08 10:17:49;;;;;;;26.97;22.87;;;1.30;89.80;;;;;;4975892;28;20194;-90
2023/03/08 10:20:36;;;;;;;26.33;23.27;;;1.30;89.30;;;;;;4956706;28;20543;-90
2023/03/08 10:23:18;;;;;;;29.03;22.33;;;1.40;89.30;;;;;;4974917;28;20185;-89
2023/03/08 10:25:45;;;;;;;23.97;21.57;;;1.40;89.00;;;;;;4974856;28;20162;-90
2023/03/08 10:28:13;;;;;;;27.10;23.67;;;1.50;88.60;;;;;;4974700;28;20695;-89
2023/03/08 10:30:46;;;;;;;28.23;23.23;;;1.40;88.20;;;;;;4974700;28;20186;-89
2023/03/08 10:33:14;;;;;;;26.87;23.70;;;1.40;88.10;;;;;;4974737;28;20310;-90
2023/03/08 10:35:57;;;;;;;26.20;22.90;;;1.50;88.20;;;;;;4974495;28;20201;-90
2023/03/08 10:38:26;;;;;;;25.10;22.30;;;1.60;88.10;;;;;;4974816;28;20186;-90
2023/03/08 10:41:15;;;;;;;32.33;25.00;;;1.60;87.80;;;;;;4974666;28;20234;-90
2023/03/08 10:43:46;;;;;;;31.83;23.70;;;1.80;87.80;;;;;;4974530;28;20176;-90
2023/03/08 10:46:15;;;;;;;26.27;22.10;;;1.90;87.60;;;;;;4974548;28;20185;-90
2023/03/08 10:48:41;;;;;;;24.63;22.03;;;1.90;87.00;;;;;;4957101;28;20229;-90
2023/03/08 10:51:19;;;;;;;22.97;20.60;;;1.80;86.10;;;;;;4974381;28;20664;-89
2023/03/08 10:54:01;;;;;;;25.37;21.37;;;1.90;85.90;;;;;;4974272;28;20242;-89
2023/03/08 10:56:39;;;;;;;26.40;21.53;;;2.00;86.00;;;;;;4956936;28;20171;-86
2023/03/08 10:59:15;;;;;;;24.80;18.97;;;2.10;86.50;;;;;;4974325;28;20165;-87
2023/03/08 11:01:55;;;;;;;24.57;21.83;;;2.20;85.40;;;;;;4957128;28;20166;-87
2023/03/08 11:04:23;;;;;;;24.93;21.60;;;2.20;84.70;;;;;;4957726;28;20642;-88
2023/03/08 11:06:49;;;;;;;28.33;22.67;;;2.40;84.80;;;;;;4974445;28;20246;-88
2023/03/08 11:09:23;;;;;;;24.60;20.87;;;2.50;84.60;;;;;;4956842;28;20669;-89
2023/03/08 11:11:49;;;;;;;26.23;22.87;;;2.50;84.00;;;;;;4974340;28;20170;-90
2023/03/08 11:14:14;;;;;;;26.30;22.80;;;2.50;83.70;;;;;;4974124;28;20261;-90
2023/03/08 11:16:55;;;;;;;28.90;23.43;;;2.40;84.00;;;;;;4974134;28;20174;-89
2023/03/08 11:19:52;;;;;;;27.77;23.37;;;2.50;84.00;;;;;;4956910;28;20162;-89
2023/03/08 11:22:27;;;;;;;30.80;24.77;;;2.50;84.20;;;;;;4974408;28;20158;-89
2023/03/08 11:25:09;;;;;;;25.30;22.33;;;2.70;84.00;;;;;;4974232;28;20245;-89
2023/03/08 11:27:54;;;;;;;25.90;23.10;;;2.80;83.00;;;;;;4974112;28;20608;-89
2023/03/08 11:30:59;;;;;;;26.70;22.17;;;3.20;83.40;;;;;;4956777;28;20700;-89
2023/03/08 11:33:59;;;;;;;23.30;21.07;;;3.70;83.30;;;;;;4960223;28;20183;-90
2023/03/08 11:36:46;;;;;;;23.40;21.10;;;3.30;80.20;;;;;;4977947;28;20246;-89
2023/03/08 11:39:18;;;;;;;24.53;22.07;;;3.50;81.90;;;;;;4978083;28;20165;-89
2023/03/08 11:42:09;;;;;;;24.17;21.70;;;3.70;80.40;;;;;;4977806;28;20152;-89
2023/03/08 11:45:00;;;;;;;23.87;21.50;;;4.10;80.50;;;;;;4960238;28;20203;-90
2023/03/08 11:48:05;;;;;;;24.67;20.60;;;4.30;80.00;;;;;;4977588;28;20340;-90
2023/03/08 11:50:46;;;;;;;23.87;21.40;;;4.20;78.90;;;;;;4977525;28;20185;-90
2023/03/08 11:53:23;;;;;;;28.27;23.23;;;4.20;78.10;;;;;;4977884;28;20560;-89
2023/03/08 11:56:00;;;;;;;27.03;24.43;;;4.00;77.20;;;;;;4960448;28;20212;-89
2023/03/08 11:58:39;;;;;;;28.50;25.77;;;3.80;76.00;;;;;;4977372;28;20671;-90
2023/03/08 12:01:13;;;;;;;27.47;24.87;;;3.70;76.80;;;;;;4960130;28;20254;-89
2023/03/08 12:03:43;;;;;;;29.23;24.47;;;3.50;75.90;;;;;;4960006;28;20544;-89
2023/03/08 12:06:27;;;;;;;29.90;24.87;;;3.40;76.10;;;;;;4977243;28;20179;-89
2023/03/08 12:09:11;;;;;;;25.70;23.30;;;3.40;76.30;;;;;;4977573;28;20163;-89
2023/03/08 12:11:51;;;;;;;27.60;24.13;;;3.40;76.80;;;;;;4960215;28;20175;-88
2023/03/08 12:14:34;;;;;;;26.73;23.90;;;3.40;76.50;;;;;;4977025;28;20191;-89
2023/03/08 12:17:43;;;;;;;25.63;22.43;;;3.60;76.70;;;;;;4977040;28;20190;-88
2023/03/08 12:20:13;;;;;;;23.17;20.30;;;3.60;76.90;;;;;;4959642;28;20178;-88
2023/03/08 12:23:14;;;;;;;24.77;22.10;;;3.60;76.40;;;;;;4959802;28;20181;-88
2023/03/08 12:25:44;;;;;;;30.07;24.27;;;3.70;76.20;;;;;;4923653;28;20244;-88
2023/03/08 12:28:19;;;;;;;25.83;21.93;;;3.70;76.40;;;;;;4959470;28;20192;-88
2023/03/08 12:30:53;;;;;;;25.43;22.87;;;4.00;77.00;;;;;;4960000;28;20162;-88
2023/03/08 12:33:19;;;;;;;24.20;21.67;;;4.30;77.10;;;;;;4960105;28;20175;-88
2023/03/08 12:36:00;;;;;;;25.77;23.37;;;4.30;75.10;;;;;;4976662;28;20683;-88
2023/03/08 12:38:39;;;;;;;20.63;18.37;;;4.70;76.00;;;;;;4959438;28;20680;-88
2023/03/08 12:41:21;;;;;;;25.80;23.20;;;5.00;75.20;;;;;;4976970;28;20503;-89
2023/03/08 12:43:58;;;;;;;24.30;21.97;;;4.70;72.80;;;;;;4959099;28;20170;-89
2023/03/08 12:46:23;;;;;;;25.07;22.50;;;4.80;73.20;;;;;;4976614;28;20537;-89